createdAt,value
2022-11-12T00:05:53.542Z,70.33
2022-11-12T00:11:43.992Z,70.38
2022-11-12T00:17:33.851Z,70.09
2022-11-12T00:23:23.743Z,70.07
2022-11-12T00:29:15.053Z,69.64
2022-11-12T00:35:08.698Z,70.06
2022-11-12T00:41:01.756Z,70.15
2022-11-12T00:46:51.861Z,70.14
2022-11-12T00:52:42.220Z,70.38
2022-11-12T00:58:34.357Z,69.69
2022-11-12T01:04:24.321Z,70.04
2022-11-12T01:10:14.680Z,70.01
2022-11-12T01:16:09.188Z,70.07
2022-11-12T01:21:59.189Z,69.97
2022-11-12T01:27:49.031Z,69.54
2022-11-12T01:33:39.597Z,69.76
2022-11-12T01:39:29.954Z,69.96
2022-11-12T01:45:20.706Z,69.98
2022-11-12T01:51:11.869Z,69.85
2022-11-12T01:57:02.594Z,69.59
2022-11-12T02:02:55.800Z,69.46
2022-11-12T02:08:45.823Z,69.66
2022-11-12T02:14:36.021Z,69.58
2022-11-12T02:20:26.418Z,69.68
2022-11-12T02:26:16.557Z,69.12
2022-11-12T02:32:06.623Z,69.06
2022-11-12T02:37:56.677Z,69.30
2022-11-12T02:43:46.964Z,69.21
2022-11-12T02:49:37.120Z,69.05
2022-11-12T02:55:27.197Z,69.11
2022-11-12T03:01:17.306Z,69.39
2022-11-12T03:07:07.328Z,69.00
2022-11-12T03:12:59.050Z,69.30
2022-11-12T03:18:48.906Z,69.02
2022-11-12T03:24:38.991Z,69.14
2022-11-12T03:30:30.599Z,68.89
2022-11-12T03:36:20.871Z,68.84
2022-11-12T03:42:10.896Z,68.85
2022-11-12T03:48:00.818Z,69.24
2022-11-12T03:53:51.062Z,69.00
2022-11-12T03:59:41.013Z,68.94
2022-11-12T04:05:49.762Z,68.60
2022-11-12T04:11:40.098Z,69.16
2022-11-12T04:17:48.672Z,68.57
2022-11-12T04:23:40.356Z,68.87
2022-11-12T04:29:49.179Z,68.85
2022-11-12T04:35:39.334Z,69.01
2022-11-12T04:41:48.367Z,68.68
2022-11-12T04:47:40.289Z,68.60
2022-11-12T04:53:31.193Z,68.73
2022-11-12T04:59:21.297Z,68.61
2022-11-12T05:05:11.255Z,68.64
2022-11-12T05:11:01.423Z,68.38
2022-11-12T05:16:52.413Z,68.27
2022-11-12T05:22:45.885Z,68.52
2022-11-12T05:28:44.453Z,68.51
2022-11-12T05:34:35.605Z,68.62
2022-11-12T05:40:26.114Z,68.35
2022-11-12T05:46:16.292Z,69.00
2022-11-12T05:52:06.409Z,68.49
2022-11-12T05:57:56.414Z,68.27
2022-11-12T06:03:46.716Z,68.35
2022-11-12T06:09:36.540Z,68.16
2022-11-12T06:15:27.255Z,68.53
2022-11-12T06:21:20.310Z,68.44
2022-11-12T06:27:10.169Z,68.54
2022-11-12T06:33:00.494Z,68.49
2022-11-12T06:38:50.335Z,68.19
2022-11-12T06:44:40.940Z,68.51
2022-11-12T06:50:30.755Z,68.22
2022-11-12T06:56:20.656Z,68.17
2022-11-12T07:02:12.923Z,68.16
2022-11-12T07:08:02.648Z,68.41
2022-11-12T07:13:52.876Z,68.01
2022-11-12T07:19:42.953Z,67.87
2022-11-12T07:25:33.113Z,67.84
2022-11-12T07:31:23.894Z,68.38
2022-11-12T07:37:13.968Z,67.89
2022-11-12T07:43:03.957Z,68.37
2022-11-12T07:48:54.862Z,68.24
2022-11-12T07:54:45.347Z,67.81
2022-11-12T08:00:35.211Z,67.42
2022-11-12T08:06:25.502Z,68.28
2022-11-12T08:12:15.944Z,67.87
2022-11-12T08:18:06.458Z,68.02
2022-11-12T08:23:56.565Z,68.19
2022-11-12T08:29:46.520Z,68.48
2022-11-12T08:35:38.082Z,68.18
2022-11-12T08:41:28.210Z,67.96
2022-11-12T08:47:18.158Z,68.58
2022-11-12T08:53:10.641Z,68.77
2022-11-12T08:59:04.932Z,68.96
2022-11-12T09:04:57.152Z,68.82
2022-11-12T09:10:47.188Z,68.82
2022-11-12T09:16:37.141Z,68.74
2022-11-12T09:22:27.496Z,69.24
2022-11-12T09:28:19.478Z,69.25
2022-11-12T09:34:09.589Z,68.71
2022-11-12T09:39:59.706Z,68.82
2022-11-12T09:46:06.819Z,68.84
2022-11-12T09:52:12.797Z,68.75
2022-11-12T09:58:06.116Z,68.99
2022-11-12T10:04:01.464Z,69.11
2022-11-12T10:10:04.330Z,69.37
2022-11-12T10:16:29.770Z,69.06
2022-11-12T10:22:38.314Z,69.37
2022-11-12T10:28:48.877Z,69.34
2022-11-12T10:34:40.385Z,69.60
2022-11-12T10:40:38.366Z,69.02
2022-11-12T10:46:31.035Z,69.60
2022-11-12T10:52:24.470Z,69.85
2022-11-12T10:58:17.237Z,69.97
2022-11-12T11:04:17.111Z,69.67
2022-11-12T11:10:32.757Z,69.90
2022-11-12T11:16:28.159Z,70.71
2022-11-12T11:22:18.365Z,71.02
2022-11-12T11:28:20.284Z,71.46
2022-11-12T11:34:13.544Z,70.87
2022-11-12T11:40:19.075Z,71.64
2022-11-12T11:46:17.556Z,71.79
2022-11-12T11:52:10.299Z,71.93
2022-11-12T11:58:29.408Z,72.21
2022-11-12T12:04:46.016Z,71.96
2022-11-12T12:11:01.194Z,72.19
2022-11-12T12:16:51.051Z,72.05
2022-11-12T12:22:46.926Z,71.97
2022-11-12T12:28:58.798Z,72.11
2022-11-12T12:34:54.357Z,72.16
2022-11-12T12:41:13.904Z,72.03
2022-11-12T12:47:03.999Z,72.37
2022-11-12T12:53:15.914Z,72.94
2022-11-12T12:59:21.715Z,72.10
2022-11-12T13:05:31.052Z,72.27
2022-11-12T13:12:02.043Z,72.62
2022-11-12T13:17:51.939Z,72.90
2022-11-12T13:24:08.031Z,72.48
2022-11-12T13:29:58.175Z,71.86
2022-11-12T13:35:48.436Z,72.40
2022-11-12T13:41:57.031Z,71.82
2022-11-12T13:47:47.120Z,72.63
2022-11-12T13:53:37.104Z,71.93
2022-11-12T13:59:27.077Z,72.08
2022-11-12T14:05:20.079Z,71.67
2022-11-12T14:11:34.926Z,71.33
2022-11-12T14:17:59.754Z,71.85
2022-11-12T14:23:50.404Z,71.79
2022-11-12T14:29:43.691Z,71.57
2022-11-12T14:35:38.663Z,71.43
2022-11-12T14:41:37.657Z,71.35
2022-11-12T14:47:27.842Z,72.15
2022-11-12T14:53:27.624Z,71.65
2022-11-12T14:59:18.364Z,71.50
2022-11-12T15:05:20.416Z,71.14
2022-11-12T15:11:21.861Z,71.05
2022-11-12T15:17:29.354Z,71.09
2022-11-12T15:23:19.779Z,71.12
2022-11-12T15:29:32.943Z,71.38
2022-11-12T15:35:26.158Z,71.34
2022-11-12T15:41:30.184Z,71.55
2022-11-12T15:47:24.341Z,70.91
2022-11-12T15:53:14.835Z,71.33
2022-11-12T15:59:05.272Z,71.02
2022-11-12T16:04:55.696Z,71.49
2022-11-12T16:10:46.830Z,71.49
2022-11-12T16:16:37.688Z,70.92
2022-11-12T16:22:27.669Z,71.14
2022-11-12T16:28:18.965Z,70.70
2022-11-12T16:34:09.095Z,70.80
2022-11-12T16:39:59.171Z,70.56
2022-11-12T16:45:49.494Z,70.50
2022-11-12T16:51:39.617Z,70.54
2022-11-12T16:57:29.609Z,71.21
2022-11-12T17:03:20.009Z,70.29
2022-11-12T17:09:11.839Z,70.54
2022-11-12T17:15:02.015Z,70.42
2022-11-12T17:20:52.443Z,70.50
2022-11-12T17:26:42.599Z,69.79
2022-11-12T17:32:32.779Z,70.25
2022-11-12T17:38:23.049Z,70.04
2022-11-12T17:44:18.406Z,70.00
2022-11-12T17:50:08.813Z,69.85
2022-11-12T17:55:59.521Z,69.93
2022-11-12T18:01:49.357Z,69.88
2022-11-12T18:07:39.650Z,70.28
2022-11-12T18:13:30.627Z,69.76
2022-11-12T18:19:21.131Z,70.07
2022-11-12T18:25:12.301Z,70.02
2022-11-12T18:31:04.706Z,70.20
2022-11-12T18:36:54.809Z,69.91
2022-11-12T18:42:44.755Z,69.34
2022-11-12T18:48:37.494Z,69.15
2022-11-12T18:54:27.743Z,69.48
2022-11-12T19:00:17.929Z,69.22
2022-11-12T19:06:08.537Z,68.92
2022-11-12T19:11:58.398Z,69.14
2022-11-12T19:17:48.365Z,69.57
2022-11-12T19:23:38.988Z,68.75
2022-11-12T19:29:28.741Z,68.96
2022-11-12T19:35:18.668Z,68.89
2022-11-12T19:41:14.697Z,68.75
2022-11-12T19:47:08.110Z,68.56
2022-11-12T19:52:58.104Z,69.11
2022-11-12T19:58:49.746Z,68.45
2022-11-12T20:04:40.150Z,68.99
2022-11-12T20:10:29.953Z,68.18
2022-11-12T20:16:25.272Z,68.70
2022-11-12T20:22:15.831Z,68.70
2022-11-12T20:28:07.305Z,68.51
2022-11-12T20:33:57.521Z,68.59
2022-11-12T20:39:47.596Z,68.36
2022-11-12T20:45:37.673Z,68.47
2022-11-12T20:51:31.133Z,68.47
2022-11-12T20:57:21.443Z,68.36
2022-11-12T21:03:11.615Z,68.51
2022-11-12T21:09:01.921Z,68.26
2022-11-12T21:14:51.908Z,68.69
2022-11-12T21:20:42.211Z,68.46
2022-11-12T21:26:32.219Z,68.68
2022-11-12T21:32:22.483Z,68.77
2022-11-12T21:38:12.642Z,68.58
2022-11-12T21:44:02.713Z,68.74
2022-11-12T21:49:52.735Z,69.29
2022-11-12T21:55:42.610Z,69.06
2022-11-12T22:01:34.405Z,68.93
2022-11-12T22:07:26.335Z,68.64
2022-11-12T22:13:31.772Z,68.63
2022-11-12T22:19:23.894Z,68.74
2022-11-12T22:25:13.996Z,68.91
2022-11-12T22:31:12.050Z,68.64
2022-11-12T22:37:02.199Z,68.98
2022-11-12T22:42:52.368Z,68.58
2022-11-12T22:48:42.436Z,68.58
2022-11-12T22:54:32.709Z,68.94
2022-11-12T23:00:30.835Z,68.88
2022-11-12T23:06:21.650Z,68.53
2022-11-12T23:12:11.949Z,68.42
2022-11-12T23:18:02.206Z,68.35
2022-11-12T23:23:53.228Z,68.84
2022-11-12T23:29:43.019Z,68.20
2022-11-12T23:35:33.301Z,68.32
2022-11-12T23:41:26.020Z,68.16
2022-11-12T23:47:16.265Z,68.04
2022-11-12T23:53:06.349Z,68.28
2022-11-12T23:58:56.301Z,68.18
